createdAt,value
2022-10-23T00:01:47.389Z,10.30
2022-10-23T00:04:21.685Z,9.60
2022-10-23T00:06:49.826Z,9.00
2022-10-23T00:09:21.337Z,9.40
2022-10-23T00:11:51.051Z,9.30
2022-10-23T00:14:21.865Z,9.90
2022-10-23T00:16:50.025Z,9.30
2022-10-23T00:19:18.389Z,9.70
2022-10-23T00:21:46.561Z,9.20
2022-10-23T00:24:14.737Z,9.90
2022-10-23T00:26:42.791Z,9.10
2022-10-23T00:29:11.252Z,8.80
2022-10-23T00:31:39.143Z,9.50
2022-10-23T00:34:08.638Z,9.30
2022-10-23T00:36:37.653Z,9.20
2022-10-23T00:39:06.505Z,9.60
2022-10-23T00:41:35.138Z,8.60
2022-10-23T00:44:08.223Z,7.40
2022-10-23T00:46:38.811Z,9.70
2022-10-23T00:49:07.692Z,9.10
2022-10-23T00:51:43.121Z,10.80
2022-10-23T00:54:29.405Z,10.20
2022-10-23T00:57:00.414Z,9.50
2022-10-23T01:01:57.272Z,8.00
2022-10-23T01:04:28.412Z,7.90
2022-10-23T01:07:24.132Z,8.30
2022-10-23T01:10:05.961Z,8.50
2022-10-23T01:12:54.763Z,8.70
2022-10-23T01:15:29.265Z,8.40
2022-10-23T01:18:07.692Z,8.30
2022-10-23T01:20:42.806Z,8.20
2022-10-23T01:23:16.967Z,9.00
2022-10-23T01:26:10.098Z,8.50
2022-10-23T01:28:47.183Z,8.50
2022-10-23T02:02:22.782Z,7.30
2022-10-23T02:05:00.423Z,7.70
2022-10-23T02:07:29.967Z,9.00
2022-10-23T02:09:58.497Z,9.90
2022-10-23T02:12:43.238Z,8.60
2022-10-23T02:15:35.985Z,9.50
2022-10-23T02:18:22.171Z,8.00
2022-10-23T02:21:00.814Z,10.60
2022-10-23T02:23:32.400Z,8.70
2022-10-23T02:26:14.615Z,8.50
2022-10-23T02:29:10.858Z,8.30
2022-10-23T02:31:40.714Z,8.90
2022-10-23T02:34:08.769Z,8.30
2022-10-23T02:36:37.490Z,10.00
2022-10-23T02:39:05.877Z,9.20
2022-10-23T02:41:47.106Z,8.50
2022-10-23T02:44:42.913Z,8.80
2022-10-23T02:47:39.389Z,8.60
2022-10-23T02:50:32.412Z,8.20
2022-10-23T02:53:06.422Z,8.00
2022-10-23T02:55:37.344Z,7.10
2022-10-23T02:58:14.444Z,8.00
2022-10-23T03:00:51.041Z,8.10
2022-10-23T03:03:24.334Z,7.40
2022-10-23T03:05:52.835Z,8.30
2022-10-23T03:08:20.809Z,8.70
2022-10-23T03:13:22.105Z,8.60
2022-10-23T03:15:49.992Z,7.40
2022-10-23T03:18:17.861Z,7.50
2022-10-23T03:20:48.223Z,7.30
2022-10-23T03:23:16.189Z,7.90
2022-10-23T03:25:44.034Z,9.00
2022-10-23T03:28:17.155Z,8.60
2022-10-23T03:30:45.065Z,7.70
2022-10-23T03:33:13.116Z,7.30
2022-10-23T03:35:41.250Z,8.70
2022-10-23T03:38:09.380Z,8.70
2022-10-23T03:40:37.178Z,9.00
2022-10-23T03:43:05.825Z,8.60
2022-10-23T03:45:33.703Z,8.50
2022-10-23T03:48:01.502Z,8.10
2022-10-23T03:50:30.525Z,17.90
2022-10-23T03:52:58.435Z,9.30
2022-10-23T03:55:27.237Z,8.40
2022-10-23T03:57:55.376Z,8.50
2022-10-23T04:00:23.915Z,7.80
2022-10-23T04:02:51.758Z,8.50
2022-10-23T04:05:19.817Z,7.20
2022-10-23T04:07:54.020Z,7.90
2022-10-23T04:10:22.104Z,7.30
2022-10-23T04:12:50.187Z,7.90
2022-10-23T04:15:18.240Z,7.80
2022-10-23T04:17:47.320Z,7.70
2022-10-23T04:20:15.254Z,8.10
2022-10-23T04:22:43.256Z,8.00
2022-10-23T04:25:11.844Z,8.70
2022-10-23T04:27:40.104Z,8.30
2022-10-23T04:30:09.126Z,7.90
2022-10-23T04:32:39.049Z,7.40
2022-10-23T04:35:07.696Z,7.80
2022-10-23T04:37:35.657Z,7.80
2022-10-23T04:40:03.980Z,7.70
2022-10-23T04:42:35.146Z,6.60
2022-10-23T04:45:05.343Z,7.80
2022-10-23T04:47:33.298Z,6.10
2022-10-23T04:50:01.190Z,7.50
2022-10-23T04:52:47.662Z,6.70
2022-10-23T04:55:27.734Z,7.00
2022-10-23T04:58:19.125Z,7.20
2022-10-23T05:00:48.370Z,7.70
2022-10-23T05:03:23.939Z,7.50
2022-10-23T05:05:56.527Z,7.50
2022-10-23T05:08:42.373Z,7.00
2022-10-23T05:11:28.794Z,12.60
2022-10-23T05:13:56.693Z,12.00
2022-10-23T05:16:34.063Z,7.90
2022-10-23T05:19:02.579Z,8.00
2022-10-23T05:21:33.265Z,8.40
2022-10-23T05:24:02.200Z,8.40
2022-10-23T05:26:32.167Z,7.20
2022-10-23T05:29:04.988Z,7.60
2022-10-23T05:31:35.350Z,7.60
2022-10-23T05:34:11.157Z,7.00
2022-10-23T05:36:45.348Z,7.60
2022-10-23T05:39:14.385Z,7.10
2022-10-23T05:41:42.391Z,6.90
2022-10-23T05:44:10.563Z,6.90
2022-10-23T05:47:09.136Z,7.10
2022-10-23T05:49:42.682Z,6.90
2022-10-23T05:52:24.154Z,6.10
2022-10-23T05:55:09.546Z,6.00
2022-10-23T05:58:07.519Z,6.50
2022-10-23T06:01:06.257Z,6.50
2022-10-23T06:03:52.959Z,6.40
2022-10-23T06:06:22.501Z,7.30
2022-10-23T06:08:51.131Z,7.80
2022-10-23T06:11:20.588Z,7.60
2022-10-23T06:16:26.980Z,5.70
2022-10-23T06:18:55.318Z,7.30
2022-10-23T06:21:23.289Z,6.30
2022-10-23T06:23:51.837Z,5.80
2022-10-23T06:26:45.256Z,6.30
2022-10-23T06:29:31.594Z,6.00
2022-10-23T06:31:59.482Z,20.80
2022-10-23T06:34:28.708Z,5.80
2022-10-23T06:36:56.753Z,5.50
2022-10-23T06:39:32.311Z,5.40
2022-10-23T06:42:19.111Z,5.60
2022-10-23T06:44:56.752Z,6.00
2022-10-23T06:47:44.032Z,4.90
2022-10-23T06:50:17.951Z,5.20
2022-10-23T06:52:47.319Z,4.40
2022-10-23T06:55:17.172Z,5.10
2022-10-23T06:57:45.384Z,5.30
2022-10-23T07:00:14.153Z,5.10
2022-10-23T07:02:51.462Z,5.80
2022-10-23T07:05:20.398Z,5.20
2022-10-23T07:07:48.854Z,4.70
2022-10-23T07:10:22.338Z,5.10
2022-10-23T07:13:01.039Z,4.80
2022-10-23T07:15:41.058Z,5.30
2022-10-23T07:21:01.243Z,4.90
2022-10-23T07:23:29.461Z,5.10
2022-10-23T07:26:07.075Z,4.40
2022-10-23T07:28:35.425Z,4.50
2022-10-23T07:31:04.061Z,5.60
2022-10-23T07:33:51.851Z,6.30
2022-10-23T07:36:21.882Z,7.10
2022-10-23T07:38:51.095Z,8.30
2022-10-23T15:51:25.739Z,12.80
2022-10-23T15:53:53.957Z,25.10
2022-10-23T15:56:21.813Z,14.40
2022-10-23T15:58:50.111Z,21.00
2022-10-23T16:01:18.283Z,13.00
2022-10-23T16:03:46.835Z,11.30
2022-10-23T16:06:16.145Z,12.60
2022-10-23T16:08:44.501Z,15.30
2022-10-23T16:11:18.940Z,11.90
2022-10-23T16:13:47.637Z,9.90
2022-10-23T16:16:16.802Z,10.40
2022-10-23T16:18:45.308Z,10.80
2022-10-23T16:21:21.855Z,9.20
2022-10-23T16:23:51.185Z,13.70
2022-10-23T16:26:20.382Z,27.00
2022-10-23T16:28:51.943Z,21.50
2022-10-23T16:31:21.209Z,12.10
2022-10-23T16:33:50.354Z,14.20
2022-10-23T16:36:19.672Z,11.60
2022-10-23T16:39:08.202Z,9.10
2022-10-23T16:41:54.739Z,12.40
2022-10-23T16:44:25.172Z,15.70
2022-10-23T16:47:00.812Z,16.80
2022-10-23T16:49:29.825Z,19.00
2022-10-23T16:51:58.236Z,17.20
2022-10-23T16:54:26.294Z,13.30
2022-10-23T16:56:54.142Z,15.30
2022-10-23T16:59:21.977Z,15.70
2022-10-23T17:01:49.994Z,15.80
2022-10-23T17:04:18.078Z,41.80
2022-10-23T17:06:46.275Z,23.90
2022-10-23T17:09:14.249Z,26.90
2022-10-23T17:11:45.572Z,62.90
2022-10-23T17:14:18.845Z,25.30
2022-10-23T17:16:49.563Z,20.90
2022-10-23T17:19:43.261Z,17.30
2022-10-23T17:22:10.824Z,18.50
2022-10-23T17:24:40.626Z,18.70
2022-10-23T17:27:09.284Z,14.80
2022-10-23T17:29:37.214Z,14.90
2022-10-23T17:32:06.130Z,12.60
2022-10-23T17:34:34.029Z,55.60
2022-10-23T17:37:02.024Z,40.60
2022-10-23T17:39:30.370Z,33.30
2022-10-23T17:41:58.778Z,19.80
2022-10-23T17:44:26.882Z,24.60
2022-10-23T17:46:55.730Z,25.10
2022-10-23T17:49:24.447Z,27.60
2022-10-23T17:51:57.849Z,14.30
2022-10-23T17:54:27.395Z,14.60
2022-10-23T17:56:56.633Z,13.00
2022-10-23T17:59:26.744Z,13.60
2022-10-23T18:01:55.931Z,10.10
2022-10-23T18:04:23.812Z,9.50
2022-10-23T18:06:53.516Z,15.90
2022-10-23T18:09:22.696Z,10.90
2022-10-23T18:11:51.758Z,16.40
2022-10-23T18:14:21.224Z,11.10
2022-10-23T18:16:50.555Z,9.10
2022-10-23T18:19:18.975Z,22.90
2022-10-23T18:21:48.380Z,15.90
2022-10-23T18:24:16.725Z,14.20
2022-10-23T18:26:46.694Z,38.30
2022-10-23T18:29:19.557Z,35.90
2022-10-23T18:31:50.686Z,18.10
2022-10-23T18:34:21.698Z,25.70
2022-10-23T18:36:51.476Z,21.70
2022-10-23T18:39:22.637Z,11.80
2022-10-23T18:41:54.092Z,9.00
2022-10-23T18:44:23.757Z,10.50
2022-10-23T18:46:51.965Z,10.40
2022-10-23T18:49:20.263Z,10.00
2022-10-23T18:51:49.882Z,13.00
2022-10-23T18:54:24.552Z,19.90
2022-10-23T18:56:52.414Z,34.40
2022-10-23T18:59:21.323Z,25.90
2022-10-23T19:01:50.265Z,14.50
2022-10-23T19:04:18.884Z,14.50
2022-10-23T19:06:49.810Z,14.70
2022-10-23T19:09:18.701Z,14.70
2022-10-23T19:11:47.006Z,13.00
2022-10-23T19:14:15.677Z,12.50
2022-10-23T19:17:01.624Z,13.20
2022-10-23T19:19:39.716Z,28.70
2022-10-23T19:22:09.916Z,28.40
2022-10-23T19:24:45.505Z,36.90
2022-10-23T19:27:14.572Z,42.40
2022-10-23T19:29:45.123Z,29.90
2022-10-23T19:32:13.320Z,31.30
2022-10-23T19:34:41.411Z,12.70
2022-10-23T19:37:09.571Z,5.10
2022-10-23T19:39:37.484Z,6.30
2022-10-23T19:42:05.484Z,6.30
2022-10-23T19:44:33.564Z,8.50
2022-10-23T19:47:02.528Z,19.10
2022-10-23T19:49:30.455Z,18.10
2022-10-23T19:51:58.514Z,23.80
2022-10-23T19:54:26.335Z,6.50
2022-10-23T19:56:57.137Z,22.50
2022-10-23T19:59:24.909Z,25.80
2022-10-23T20:01:52.918Z,29.60
2022-10-23T20:04:20.866Z,6.40
2022-10-23T20:06:48.929Z,6.30
2022-10-23T20:09:16.767Z,9.90
2022-10-23T20:11:45.422Z,9.00
2022-10-23T20:14:14.981Z,7.50
2022-10-23T20:16:50.177Z,7.00
2022-10-23T20:19:21.322Z,5.70
2022-10-23T20:21:49.506Z,4.90
2022-10-23T20:24:19.557Z,3.80
2022-10-23T20:26:51.085Z,10.70
2022-10-23T20:29:19.387Z,13.10
2022-10-23T20:31:47.665Z,20.10
2022-10-23T20:34:15.651Z,10.20
2022-10-23T20:36:46.959Z,6.30
2022-10-23T20:39:20.964Z,6.70
2022-10-23T20:41:48.853Z,5.50
2022-10-23T20:44:18.479Z,11.80
2022-10-23T20:46:47.009Z,6.80
2022-10-23T20:49:16.404Z,6.30
2022-10-23T20:51:44.852Z,4.90
2022-10-23T20:54:12.693Z,4.10
2022-10-23T20:56:40.787Z,4.60
2022-10-23T20:59:13.126Z,4.60
2022-10-23T21:01:44.936Z,5.00
2022-10-23T21:04:14.345Z,5.00
2022-10-23T21:06:57.815Z,9.60
2022-10-23T21:09:31.477Z,8.70
2022-10-23T21:11:59.544Z,7.20
2022-10-23T21:14:27.438Z,4.80
2022-10-23T21:16:55.255Z,4.80
2022-10-23T21:19:23.110Z,9.70
2022-10-23T21:21:50.991Z,6.80
2022-10-23T21:24:18.935Z,5.40
2022-10-23T21:26:47.066Z,7.60
2022-10-23T21:29:19.386Z,7.60
2022-10-23T21:31:55.582Z,7.20
2022-10-23T21:34:25.026Z,9.70
2022-10-23T21:37:12.005Z,6.40
2022-10-23T21:39:42.596Z,4.70
2022-10-23T21:42:11.892Z,4.80
2022-10-23T21:44:40.286Z,4.70
2022-10-23T21:47:08.438Z,4.60
2022-10-23T21:49:36.244Z,4.90
2022-10-23T21:52:04.473Z,4.60
2022-10-23T21:54:32.720Z,4.40
2022-10-23T21:57:01.837Z,4.50
2022-10-23T21:59:31.576Z,4.80
2022-10-23T22:02:01.241Z,5.30
2022-10-23T22:04:29.199Z,6.90
2022-10-23T22:06:57.109Z,7.00
2022-10-23T22:09:25.027Z,4.70
2022-10-23T22:11:54.351Z,4.90
2022-10-23T22:14:23.739Z,4.40
2022-10-23T22:16:52.434Z,5.80
2022-10-23T22:19:22.228Z,5.40
2022-10-23T22:21:51.434Z,6.00
2022-10-23T22:24:19.903Z,5.70
2022-10-23T22:26:57.556Z,5.70
2022-10-23T22:29:28.209Z,5.50
2022-10-23T22:31:57.153Z,5.00
2022-10-23T22:37:17.793Z,4.90
2022-10-23T22:39:45.643Z,4.70
2022-10-23T22:42:13.620Z,4.90
2022-10-23T22:44:41.380Z,5.30
2022-10-23T22:47:09.469Z,11.40
2022-10-23T22:49:38.370Z,7.40
2022-10-23T22:52:06.183Z,5.10
2022-10-23T22:54:34.164Z,8.10
2022-10-23T22:57:01.963Z,6.80
2022-10-23T22:59:30.034Z,4.90
2022-10-23T23:01:57.927Z,4.50
2022-10-23T23:04:42.557Z,4.70
2022-10-23T23:07:12.473Z,4.50
2022-10-23T23:09:42.588Z,5.00
2022-10-23T23:12:13.103Z,4.50
2022-10-23T23:14:41.987Z,5.00
2022-10-23T23:17:11.012Z,5.10
2022-10-23T23:19:38.980Z,4.80
2022-10-23T23:22:06.959Z,4.60
2022-10-23T23:24:35.030Z,4.60
2022-10-23T23:27:02.813Z,4.60
2022-10-23T23:29:31.385Z,4.80
2022-10-23T23:31:59.181Z,4.80
2022-10-23T23:34:27.054Z,4.90
2022-10-23T23:36:54.983Z,4.50
2022-10-23T23:39:22.829Z,4.50
2022-10-23T23:41:50.615Z,3.90
2022-10-23T23:44:18.482Z,4.80
2022-10-23T23:46:46.304Z,4.40
2022-10-23T23:49:14.194Z,4.30
2022-10-23T23:51:42.033Z,4.20
2022-10-23T23:54:09.890Z,4.20
2022-10-23T23:56:37.963Z,4.30
2022-10-23T23:59:05.861Z,4.50
